RLSO2: Arkansas River, Ralston, OK

Data processed at Sat Dec 09 2017 23:21


All information presented herein is the property of the government of the United States of America and may be revised or deleted at any time without prior notice.
Dissemination of this information without the expressed written consent of the Public Affairs Office, Tulsa District U.S. Army Corps of Engineers is strictly prohibited.
These data are gathered electronically and, as presented, have not undergone any form of quality control. These data are not guaranteed to be valid or correct.
Go to home page.
Go to station list.

Upstream stations:

Downstream station:
Previous Day
Next Day
Current Day
    
SHEF ID:       RLSO2     Arkansas River at Ralston, OK
STATION TYPE:  

               PRECIP     STAGE  RIV-FLOW  BAT-LOAD
                   in        ft       cfs      volt
              Ccp-Rev   Ccp-Rev   Ccp-Rev   Ccp-Rev
(US/Central)
12/07 00:00      0.00      3.21       409     12.49
12/07 01:00      0.00      3.17       373     12.49
12/07 02:00      0.00      3.19       391     12.49
12/07 03:00      0.00      3.15       356     12.49
12/07 04:00      0.00      3.15       356     12.41
12/07 05:00      0.00      3.17       373     12.41
12/07 06:00      0.00      3.16       365     12.41
12/07 07:00      0.00      3.14       347     12.41
12/07 08:00      0.00      3.24       437     12.33
12/07 09:00      0.00      3.12       331     12.41
12/07 10:00      0.00      3.12       331     12.97
12/07 11:00      0.00      3.15       356     13.37
12/07 12:00      0.00      3.15       356     13.92
12/07 13:00      0.00      3.14       347     14.00
12/07 14:00      0.00      3.16       365     14.00
12/07 15:00      0.00      3.15       356     14.00
12/07 16:00      0.00      3.14       347     13.84
12/07 17:00      0.00      3.23       428     13.68
12/07 18:00      0.00      3.22       419     13.44
12/07 19:00      0.00      3.22       419     13.05
12/07 20:00      0.00      3.23       428     12.73
12/07 21:00      0.00      3.23       428     12.57
12/07 22:00      0.00      3.23       428     12.49
12/07 23:00      0.00      3.24       437     12.49